Dufftown, United Kingdom
Current Conditions -  °F | °C
As of 12:50 AM on Thursday 27 Nov 2014 (Local Time) from EGQS Reporting Station
Clear Clear  
Wind Chill: 36°   Ceiling: Unl
Heat Index: 36°   Visibility: 6mi
Dew Point: 36°   Wind: 3mph
Humidity: 100%   Direction: 190°S
Pressure: 29.77"   Gusts: NA
Location:  57.43°N, 3.13°W
Report Text: EGQS 270050Z 19003KT CAVOK 02/02 Q1008 BLU
Loading
Personal Weather Stations






























Interactive Weather Map New forecast layout! Learn more

10-Day Weather Forecast

Advertisements
Track Severe Weather on mobile